Flight Track Log - Related Links

Times and Time Zones

All times are in EDT time to prevent confusion due to time zone crossing. See the DAL268 flight status page for this flight to view local times or setup timezone preferences in your user account.

Time Position Orientation Groundspeed Altitude Reporting Facility
EDT Latitude Longitude Course Direction KTS MPH feet Rate Location/Type
Thu 00:01:27 40.6170 -73.7860 212° Southwest 164 189 700  Level FlightAware ADS-B
Thu 00:01:42 40.6070 -73.7930 208° Southwest 169 194 1,200 1,950 Climbing FlightAware ADS-B
Thu 00:02:07 40.5880 -73.8020 200° South 176 203 2,000 1,418 Climbing FlightAware ADS-B
Thu 00:02:37 40.5650 -73.7820 147° Southeast 222 255 2,500 933 Climbing FlightAware ADS-B
Thu 00:02:52 40.5600 -73.7630 109° East 233 268 2,700 800 Climbing FlightAware ADS-B
Thu 00:03:07 40.5630 -73.7400 80° East 237 273 2,900 933 Climbing FlightAware ADS-B
Thu 00:03:37 40.5820 -73.7060 54° Northeast 241 277 3,400 873 Climbing FlightAware ADS-B
Thu 00:04:02 40.6000 -73.6770 51° Northeast 260 299 3,700 764 Climbing FlightAware ADS-B
Thu 00:04:32 40.6240 -73.6390 50° Northeast 280 322 4,100 873 Climbing FlightAware ADS-B
Thu 00:04:57 40.6460 -73.6040 50° Northeast 296 341 4,500 982 Climbing FlightAware ADS-B
Thu 00:05:27 40.6740 -73.5600 50° Northeast 318 366 5,000 655 Climbing FlightAware ADS-B
Thu 00:05:52 40.6980 -73.5240 49° Northeast 330 380 5,100 1,527 Climbing FlightAware ADS-B
Thu 00:06:22 40.7360 -73.4840 39° Northeast 327 376 6,400 2,200 Climbing FlightAware ADS-B
Thu 00:06:52 40.7680 -73.4470 41° Northeast 334 384 7,300 2,073 Climbing FlightAware ADS-B
Thu 00:07:17 40.7990 -73.4140 39° Northeast 336 387 8,300 1,855 Climbing FlightAware ADS-B
Thu 00:07:47 40.8400 -73.3860 27° Northeast 343 395 9,000 1,855 Climbing FlightAware ADS-B
Thu 00:08:12 40.8780 -73.3690 19° North 346 398 10,000 1,543 Climbing FlightAware ADS-B
Thu 00:08:57 40.9500 -73.3320 21° North 377 434 10,800 988 Climbing FlightAware ADS-B
Thu 00:09:37 41.0200 -73.3010 18° North 411 473 11,400 706 Climbing FlightAware ADS-B
Thu 00:10:22 41.1040 -73.2630 19° North 454 522 11,800 988 Climbing FlightAware ADS-B
Thu 00:11:02 41.1860 -73.2240 20° North 472 543 12,800 1,425 Climbing FlightAware ADS-B
Thu 00:11:42 41.2680 -73.1870 19° North 490 564 13,700 750 Climbing FlightAware ADS-B
Thu 00:12:22 41.3480 -73.1520 18° North 491 565 13,800 75 Climbing FlightAware ADS-B
Thu 00:13:02 41.4220 -73.1200 18° North 491 565 13,800 1,826 Level FlightAware ADS-B
Thu 00:14:17 41.5030 -72.8580 67° East 520 598 17,300 1,826 Climbing FlightAware ADS-B
Thu 00:14:57 41.5440 -72.7640 60° Northeast 520 598 17,300 2,325 Level FlightAware ADS-B
Thu 00:15:37 41.6330 -72.6320 48° Northeast 541 623 20,400 2,471 Climbing FlightAware ADS-B
Thu 00:16:22 41.6890 -72.5420 50° Northeast 540 621 20,800 1,486 Climbing FlightAware ADS-B
Thu 00:16:47 41.7060 -72.5150 50° Northeast 22,200 2,200 Climbing FlightAware ADS-B
Thu 00:17:22 41.8000 -72.3580 51° Northeast 552 635 23,000 1,280 Climbing FlightAware ADS-B
Thu 00:18:02 41.8660 -72.2450 52° Northeast 558 642 23,800 1,296 Climbing FlightAware ADS-B
Thu 00:18:47 41.9370 -72.1250 51° Northeast 24,800 1,341 Climbing FlightAware ADS-B
Thu 00:19:27 42.0050 -72.0070 52° Northeast 569 655 25,700 1,200 Climbing FlightAware ADS-B
Thu 00:20:12 42.0760 -71.8860 52° Northeast 573 659 26,500 1,200 Climbing FlightAware ADS-B
Thu 00:20:52 42.1420 -71.7760 51° Northeast 569 655 27,400 1,412 Climbing FlightAware ADS-B
Thu 00:21:37 42.2190 -71.6480 51° Northeast 566 651 28,500 1,350 Climbing FlightAware ADS-B
Thu 00:22:12 42.2750 -71.5540 51° Northeast 564 649 29,200 1,125 Climbing FlightAware ADS-B
Thu 00:22:57 42.3500 -71.4270 51° Northeast 566 651 30,000 1,133 Climbing FlightAware ADS-B
Thu 00:23:42 42.4220 -71.3060 51° Northeast 563 648 30,900 706 Climbing FlightAware ADS-B
Thu 00:24:22 42.4860 -71.1970 51° Northeast 563 648 31,000 71 Climbing FlightAware ADS-B
Thu 00:25:07 42.5600 -71.0710 51° Northeast 560 644 31,000  Level FlightAware ADS-B
Thu 00:25:47 42.6260 -70.9580 52° Northeast 560 644 31,000  Level FlightAware ADS-B
Thu 00:26:27 42.6900 -70.8480 52° Northeast 559 643 31,000  Level FlightAware ADS-B
Thu 00:27:07 42.7520 -70.7400 52° Northeast 558 642 31,000  Level FlightAware ADS-B
Thu 00:27:52 42.8230 -70.6170 52° Northeast 556 640 31,000  Level FlightAware ADS-B
Thu 00:28:37 42.8970 -70.4880 52° Northeast 557 641 31,000  Level FlightAware ADS-B
Thu 00:29:17 42.9600 -70.3800 51° Northeast 557 641 31,000  Level FlightAware ADS-B
Thu 00:29:57 43.0220 -70.2690 53° Northeast 558 642 31,000  Level FlightAware ADS-B
Thu 00:30:42 43.0900 -70.1500 52° Northeast 554 638 31,000  Level FlightAware ADS-B
Thu 00:31:22 43.1550 -70.0360 52° Northeast 558 642 31,000  Level FlightAware ADS-B
Thu 00:32:02 43.2140 -69.9310 52° Northeast 558 642 31,000  Level FlightAware ADS-B
Thu 00:33:02 43.3130 -69.7540 52° Northeast 559 643 31,000  Level FlightAware ADS-B
Thu 00:33:42 43.3790 -69.6370 52° Northeast 558 642 31,000  Level FlightAware ADS-B
Thu 00:34:27 43.4480 -69.5120 53° Northeast 557 641 31,000  Level FlightAware ADS-B
Thu 00:35:22 43.5330 -69.3590 53° Northeast 553 636 31,000  Level FlightAware ADS-B
Thu 00:35:57 43.5860 -69.2630 53° Northeast 547 629 31,000  Level FlightAware ADS-B
Thu 00:36:57 43.6710 -69.1080 53° Northeast 546 628 31,000  Level FlightAware ADS-B
Thu 00:38:17 43.8010 -68.8700 53° Northeast 31,000  Level FlightAware ADS-B
Thu 00:39:12 43.8810 -68.7220 53° Northeast 542 624 31,000  Level FlightAware ADS-B
Thu 00:39:52 43.9410 -68.6120 53° Northeast 546 628 31,000  Level FlightAware ADS-B
Thu 00:40:42 44.0210 -68.4610 54° Northeast 544 626 31,000  Level FlightAware ADS-B
Thu 00:41:27 44.0900 -68.3330 53° Northeast 542 624 31,000  Level FlightAware ADS-B
Thu 00:42:07 44.1490 -68.2200 54° Northeast 540 621 31,000  Level FlightAware ADS-B
Thu 00:42:52 44.2170 -68.0930 53° Northeast 539 620 31,000  Level FlightAware ADS-B
Thu 00:43:27 44.2630 -68.0040 54° Northeast 538 619 31,000  Level FlightAware ADS-B
Thu 00:44:12 44.3320 -67.8730 54° Northeast 539 620 31,000  Level FlightAware ADS-B
Thu 00:44:52 44.3910 -67.7620 53° Northeast 538 619 31,000  Level FlightAware ADS-B
Thu 00:45:37 44.4570 -67.6340 54° Northeast 536 617 31,000  Level FlightAware ADS-B
Thu 00:46:22 44.5250 -67.5040 54° Northeast 535 616 31,000  Level FlightAware ADS-B
Thu 00:47:02 44.5830 -67.3920 54° Northeast 533 613 31,000  Level FlightAware ADS-B
Thu 00:47:42 44.6400 -67.2800 54° Northeast 533 613 31,000  Level FlightAware ADS-B
Thu 00:48:27 44.7030 -67.1560 54° Northeast 533 613 31,000  Level FlightAware ADS-B
Thu 00:49:07 44.7620 -67.0410 54° Northeast 533 613 31,000  Level FlightAware ADS-B
Thu 00:49:47 44.8180 -66.9300 55° Northeast 531 611 31,000  Level FlightAware ADS-B
Thu 00:50:32 44.8810 -66.8050 55° Northeast 530 610 31,000  Level FlightAware ADS-B
Thu 00:51:12 44.9410 -66.6880 54° Northeast 530 610 31,000  Level FlightAware ADS-B
Thu 00:51:57 45.0000 -66.5690 55° Northeast 530 610 31,000  Level FlightAware ADS-B
Thu 00:52:37 45.0580 -66.4530 55° Northeast 529 609 31,000  Level FlightAware ADS-B
Thu 00:53:12 45.1050 -66.3580 55° Northeast 531 611 31,000  Level FlightAware ADS-B
Thu 00:54:02 45.1750 -66.2160 55° Northeast 530 610 31,000  Level FlightAware ADS-B
Thu 00:54:42 45.2330 -66.1000 55° Northeast 523 602 31,000  Level FlightAware ADS-B
Thu 00:55:27 45.2950 -65.9730 55° Northeast 519 597 31,000  Level FlightAware ADS-B
Thu 00:55:57 45.3360 -65.8870 56° Northeast 518 596 31,000  Level FlightAware ADS-B
Thu 00:56:47 45.4040 -65.7480 55° Northeast 521 600 31,000  Level FlightAware ADS-B
Thu 00:57:32 45.4660 -65.6200 55° Northeast 525 604 31,000  Level FlightAware ADS-B
Thu 00:58:12 45.5200 -65.5070 56° Northeast 523 602 31,000  Level FlightAware ADS-B
Thu 00:58:57 45.5890 -65.3650 55° Northeast 525 604 31,000  Level FlightAware ADS-B
Thu 00:59:32 45.6350 -65.2680 56° Northeast 521 600 31,000  Level FlightAware ADS-B
Thu 01:00:17 45.6950 -65.1420 56° Northeast 520 598 31,000  Level FlightAware ADS-B
Thu 01:01:02 45.7560 -65.0130 56° Northeast 520 598 31,000  Level FlightAware ADS-B
Thu 01:01:42 45.8100 -64.8990 56° Northeast 516 594 31,000  Level FlightAware ADS-B
Thu 01:02:27 45.8670 -64.7760 56° Northeast 515 593 31,000  Level FlightAware ADS-B
Thu 01:03:07 45.9130 -64.6800 55° Northeast 515 593 31,000  Level FlightAware ADS-B
Thu 01:03:52 45.9760 -64.5430 56° Northeast 516 594 31,000  Level FlightAware ADS-B
Thu 01:04:32 46.0220 -64.4460 56° Northeast 516 594 31,000  Level FlightAware ADS-B
Thu 01:05:12 46.0670 -64.3490 56° Northeast 516 594 31,000  Level FlightAware ADS-B
Thu 01:05:52 46.1120 -64.2520 56° Northeast 516 594 31,000  Level FlightAware ADS-B
Thu 01:06:32 46.1580 -64.1550 56° Northeast 516 594 31,000  Level FlightAware ADS-B
Thu 01:07:22 46.2150 -64.0330 56° Northeast 516 594 31,000  Level FlightAware ADS-B
Thu 01:08:02 46.2600 -63.9360 56° Northeast 516 594 31,000  Level FlightAware ADS-B
Thu 01:08:42 46.3050 -63.8390 56° Northeast 516 594 31,000  Level FlightAware ADS-B
Thu 01:09:22 46.3510 -63.7410 56° Northeast 516 594 31,000  Level FlightAware ADS-B
Thu 01:10:02 46.3960 -63.6440 56° Northeast 516 594 31,000  Level FlightAware ADS-B
Thu 01:10:42 46.4410 -63.5460 56° Northeast 516 594 31,000  Level FlightAware ADS-B
Thu 01:11:22 46.4870 -63.4480 56° Northeast 516 594 31,000  Level FlightAware ADS-B
Thu 01:12:12 46.5440 -63.3260 56° Northeast 516 594 31,000  Level FlightAware ADS-B
Thu 01:12:52 46.5890 -63.2280 56° Northeast 516 594 31,000  Level FlightAware ADS-B
Thu 01:13:21 46.7333 -62.8167 56° Northeast 540 621 31,000  Level Gander Center
Thu 01:14:05 46.7833 -62.7000 58° Northeast 530 610 31,000  Level Gander Center
Thu 01:14:29 46.8167 -62.6167 60° Northeast 530 610 31,000  Level Moncton Center
Thu 01:20:22 47.2790 -61.5850 60° Northeast 505 581 31,000  Level FlightAware ADS-B
Thu 01:21:07 47.3340 -61.4520 59° Northeast 507 583 31,000  Level FlightAware ADS-B
Thu 01:21:47 47.3830 -61.3330 59° Northeast 508 585 31,000  Level FlightAware ADS-B
Thu 01:22:32 47.4370 -61.2030 58° Northeast 509 586 31,000  Level FlightAware ADS-B
Thu 01:23:07 47.4800 -61.1000 58° Northeast 508 585 31,000  Level FlightAware ADS-B
Thu 01:23:47 47.5250 -60.9910 59° Northeast 508 585 31,000  Level FlightAware ADS-B
Thu 01:24:37 47.5780 -60.8660 58° Northeast 508 585 31,000  Level FlightAware ADS-B
Thu 01:25:17 47.6200 -60.7650 58° Northeast 508 585 31,000  Level FlightAware ADS-B
Thu 01:25:57 47.6630 -60.6650 57° Northeast 508 585 31,000  Level FlightAware ADS-B
Thu 01:26:37 47.7050 -60.5640 58° Northeast 508 585 31,000  Level FlightAware ADS-B
Thu 01:27:17 47.7480 -60.4630 58° Northeast 508 585 31,000  Level FlightAware ADS-B
Thu 01:28:07 47.8000 -60.3370 58° Northeast 508 585 31,000  Level FlightAware ADS-B
Thu 01:28:47 47.8430 -60.2360 58° Northeast 508 585 31,000  Level FlightAware ADS-B
Thu 01:29:27 47.8850 -60.1350 58° Northeast 508 585 31,000  Level FlightAware ADS-B
Thu 01:30:07 47.9270 -60.0340 58° Northeast 508 585 31,000  Level FlightAware ADS-B
Thu 01:30:47 47.9700 -59.9330 58° Northeast 508 585 31,000  Level FlightAware ADS-B
Thu 01:31:37 48.0230 -59.8070 58° Northeast 508 585 31,000  Level FlightAware ADS-B
Thu 01:32:17 48.0650 -59.7050 58° Northeast 508 585 31,000  Level FlightAware ADS-B
Thu 01:32:57 48.1070 -59.6040 58° Northeast 508 585 31,000  Level FlightAware ADS-B
Thu 01:33:21 48.2167 -59.2000 58° Northeast 510 587 31,000  Level Gander Center
Thu 01:34:05 48.2667 -59.0667 61° Northeast 510 587 31,000  Level Gander Center
Thu 01:34:29 48.3000 -58.9833 59° Northeast 510 587 31,000  Level Moncton Center
Thu 01:35:29 48.3500 -58.8000 68° East 520 598 31,000  Level Moncton Center
Thu 01:36:29 48.4333 -58.6167 56° Northeast 520 598 31,000  Level Moncton Center
Thu 01:37:05 48.4667 -58.5167 63° Northeast 530 610 31,000  Level Gander Center
Thu 01:38:05 48.5500 -58.3000 60° Northeast 530 610 31,000  Level Gander Center
Thu 01:43:37 48.9490 -57.2630 60° Northeast 521 600 31,000  Level FlightAware ADS-B
Thu 01:44:27 48.9960 -57.1230 63° Northeast 521 600 31,000  Level FlightAware ADS-B
Thu 01:45:07 49.0330 -57.0120 63° Northeast 521 600 31,000  Level FlightAware ADS-B
Thu 01:45:47 49.0700 -56.9010 63° Northeast 521 600 31,000  Level FlightAware ADS-B
Thu 01:46:47 49.1570 -56.6210 65° Northeast 531 611 31,000  Level FlightAware ADS-B
Thu 01:47:22 49.1920 -56.5150 63° Northeast 531 611 31,000  Level FlightAware ADS-B
Thu 01:48:12 49.2460 -56.3430 64° Northeast 525 604 31,000  Level FlightAware ADS-B
Thu 01:48:42 49.2800 -56.2360 64° Northeast 526 605 31,000  Level FlightAware ADS-B
Thu 01:49:47 49.3440 -56.0330 64° Northeast 526 605 31,000  Level FlightAware ADS-B
Thu 01:50:27 49.3800 -55.9190 64° Northeast 526 605 31,000  Level FlightAware ADS-B
Thu 01:51:07 49.4160 -55.8040 64° Northeast 526 605 31,000  Level FlightAware ADS-B
Thu 01:51:47 49.4530 -55.6900 63° Northeast 526 605 31,000  Level FlightAware ADS-B
Thu 01:52:37 49.4980 -55.5470 64° Northeast 526 605 31,000  Level FlightAware ADS-B
Thu 01:53:17 49.5340 -55.4320 64° Northeast 526 605 31,000  Level FlightAware ADS-B
Thu 01:53:52 49.6020 -55.1950 66° East 31,000  Level FlightAware ADS-B
Thu 01:54:42 49.6510 -55.0310 65° Northeast 515 593 31,000  Level FlightAware ADS-B
Thu 01:55:37 49.7090 -54.8400 65° Northeast 514 592 31,000  Level FlightAware ADS-B
Thu 01:56:22 49.7540 -54.6870 65° Northeast 514 592 31,000  Level FlightAware ADS-B
Thu 01:56:52 49.7840 -54.5880 65° Northeast 513 590 31,000  Level FlightAware ADS-B
Thu 01:57:42 49.8280 -54.4370 66° East 513 590 31,000  Level FlightAware ADS-B
Thu 01:58:17 49.8690 -54.2970 66° East 513 590 31,000  Level FlightAware ADS-B
Thu 01:59:07 49.9170 -54.1320 66° East 513 590 31,000  Level FlightAware ADS-B
Thu 02:00:02 49.9670 -53.9590 66° East 515 593 31,000  Level FlightAware ADS-B
Thu 02:00:47 50.0100 -53.8090 66° East 515 593 31,000 706 Level FlightAware ADS-B
Thu 02:01:27 50.0530 -53.6570 66° East 520 598 32,000 800 Climbing FlightAware ADS-B
Thu 02:02:02 50.0880 -53.5350 66° East 519 597 32,000  Level FlightAware ADS-B
Thu 02:02:52 50.1360 -53.3650 66° East 511 588 32,000  Level FlightAware ADS-B
Thu 02:04:02 50.1990 -53.1360 67° East 509 586 32,000  Level FlightAware ADS-B
Thu 02:04:42 50.2300 -53.0210 67° East 509 586 32,000  Level FlightAware ADS-B
Thu 02:05:22 50.2610 -52.9060 67° East 509 586 32,000  Level FlightAware ADS-B
Thu 02:06:02 50.2920 -52.7910 67° East 509 586 32,000  Level FlightAware ADS-B
Thu 02:06:42 50.3240 -52.6750 67° East 509 586 32,000  Level FlightAware ADS-B
Thu 02:07:32 50.3630 -52.5310 67° East 509 586 32,000  Level FlightAware ADS-B
Thu 02:08:12 50.4310 -52.2850 66° East 512 589 32,000  Level FlightAware ADS-B
Thu 02:08:57 50.4690 -52.1430 67° East 516 594 32,000  Level FlightAware ADS-B
Thu 02:09:37 50.5010 -52.0250 67° East 516 594 32,000  Level FlightAware ADS-B
Thu 02:10:17 50.5320 -51.9080 67° East 516 594 32,000  Level FlightAware ADS-B
Thu 02:10:57 50.5640 -51.7900 67° East 516 594 32,000  Level FlightAware ADS-B
Thu 02:11:37 50.5960 -51.6720 67° East 516 594 32,000  Level FlightAware ADS-B
Thu 02:12:17 50.6270 -51.5550 67° East 516 594 32,000  Level FlightAware ADS-B
Thu 02:13:00 50.5000 -52.0667 68° East 503 579 32,000  Level ETMS Enhanced Traffic Management System
Thu 02:13:07 50.6670 -51.4070 67° East 516 594 32,000  Level FlightAware ADS-B
Thu 02:13:21 50.6667 -51.1333 68° East 500 575 32,000  Level Gander Center
Thu 02:13:47 50.6990 -51.2890 67° East 516 594 32,000  Level FlightAware ADS-B
Thu 02:14:21 50.7333 -50.9500 60° Northeast 500 575 32,000  Level Gander Center
Thu 02:14:27 50.7300 -51.1710 67° East 516 594 32,000  Level FlightAware ADS-B
Thu 02:15:05 50.7667 -50.7833 72° East 500 575 32,000  Level Gander Center
Thu 02:15:07 50.7620 -51.0530 67° East 516 594 32,000  Level FlightAware ADS-B
Thu 02:15:47 50.7940 -50.9350 67° East 516 594 32,000  Level FlightAware ADS-B
Thu 02:15:48 50.7833 -50.6333 80° East 520 598 32,000  Level Moncton Center
Thu 02:16:37 50.8330 -50.7870 67° East 516 594 32,000  Level FlightAware ADS-B
Thu 02:16:48 50.8500 -50.4333 62° Northeast 500 575 32,000  Level Moncton Center
Thu 02:17:17 50.8650 -50.6690 67° East 516 594 32,000  Level FlightAware ADS-B
Thu 02:17:48 50.8833 -50.2333 75° East 510 587 32,000  Level Moncton Center
Thu 02:17:57 50.8970 -50.5510 67° East 516 594 32,000  Level FlightAware ADS-B
Thu 02:18:05 50.9167 -50.2000 32° Northeast 490 564 32,000  Level Gander Center
Thu 02:19:05 50.9667 -49.9667 71° East 500 575 32,000  Level Gander Center
Thu 02:20:05 50.9833 -49.7667 82° East 490 564 32,000  Level Gander Center
Thu 02:21:05 51.0333 -49.5500 70° East 490 564 32,000  Level Gander Center
Thu 02:21:21 51.0333 -49.5000 90° East 490 564 32,000  Level Gander Center
Thu 02:22:00 51.0000 -50.0000 77° East 493 567 32,000  Level ETMS Enhanced Traffic Management System
Thu 02:30:00 51.3160 -47.6513 79° East 493 567 32,000  Level FlightAware Transoceanic
Thu 02:31:00 51.3424 -47.4363 79° East 493 567 32,000  Level FlightAware Transoceanic
Thu 02:32:00 51.3684 -47.2210 79° East 493 567 32,000  Level FlightAware Transoceanic
Thu 02:33:00 51.3939 -47.0054 79° East 493 567 32,000  Level FlightAware Transoceanic
Thu 02:34:00 51.4191 -46.7896 79° East 493 567 32,000  Level FlightAware Transoceanic
Thu 02:35:00 51.4439 -46.5736 80° East 493 567 32,000  Level FlightAware Transoceanic
Thu 02:36:00 51.4683 -46.3573 80° East 493 567 32,000  Level FlightAware Transoceanic
Thu 02:37:00 51.4923 -46.1408 80° East 493 567 32,000  Level FlightAware Transoceanic
Thu 02:38:00 51.5159 -45.9241 80° East 493 567 32,000  Level FlightAware Transoceanic
Thu 02:39:00 51.5392 -45.7071 80° East 493 567 32,000  Level FlightAware Transoceanic
Thu 02:40:00 51.5620 -45.4900 80° East 493 567 32,000  Level FlightAware Transoceanic
Thu 02:41:00 51.5844 -45.2726 81° East 493 567 32,000  Level FlightAware Transoceanic
Thu 02:42:00 51.6064 -45.0550 81° East 493 567 32,000  Level FlightAware Transoceanic
Thu 02:43:00 51.6280 -44.8372 81° East 493 567 32,000  Level FlightAware Transoceanic
Thu 02:44:00 51.6492 -44.6192 81° East 493 567 32,000  Level FlightAware Transoceanic
Thu 02:45:00 51.6699 -44.4010 81° East 493 567 32,000  Level FlightAware Transoceanic
Thu 02:46:00 51.6903 -44.1826 82° East 493 567 32,000  Level FlightAware Transoceanic
Thu 02:47:00 51.7103 -43.9640 82° East 493 567 32,000  Level FlightAware Transoceanic
Thu 02:48:00 51.7299 -43.7452 82° East 493 567 32,000  Level FlightAware Transoceanic
Thu 02:49:00 51.7491 -43.5262 82° East 493 567 32,000  Level FlightAware Transoceanic
Thu 02:50:00 51.7678 -43.3070 82° East 493 567 32,000  Level FlightAware Transoceanic
Thu 02:51:00 51.7862 -43.0877 82° East 493 567 32,000  Level FlightAware Transoceanic
Thu 02:52:00 51.8041 -42.8681 83° East 493 567 32,000  Level FlightAware Transoceanic
Thu 02:53:00 51.8217 -42.6484 83° East 493 567 32,000  Level FlightAware Transoceanic
Thu 02:54:00 51.8388 -42.4286 83° East 493 567 32,000  Level FlightAware Transoceanic
Thu 02:55:00 51.8555 -42.2086 83° East 493 567 32,000  Level FlightAware Transoceanic
Thu 02:56:00 51.8718 -41.9884 83° East 493 567 32,000  Level FlightAware Transoceanic
Thu 02:57:00 51.8877 -41.7680 83° East 493 567 32,000  Level FlightAware Transoceanic
Thu 02:58:00 51.9032 -41.5475 84° East 493 567 32,000  Level FlightAware Transoceanic
Thu 02:59:00 51.9183 -41.3269 84° East 493 567 32,000  Level FlightAware Transoceanic
Thu 03:00:00 51.9329 -41.1061 84° East 493 567 32,000  Level FlightAware Transoceanic
Thu 03:01:00 51.9472 -40.8851 84° East 493 567 32,000  Level FlightAware Transoceanic
Thu 03:02:00 51.9610 -40.6640 84° East 493 567 32,000  Level FlightAware Transoceanic
Thu 03:03:00 51.9744 -40.4428 84° East 493 567 32,000  Level FlightAware Transoceanic
Thu 03:04:00 51.9874 -40.2215 85° East 493 567 32,000  Level FlightAware Transoceanic
Thu 03:05:00 52.0004 -39.9931 85° East  Level FlightAware Approximate
Thu 03:06:00 52.0019 -39.9864 77° East  Level FlightAware Approximate
Thu 03:07:00 52.0329 -39.7625 77° East  Level FlightAware Approximate
Thu 03:07:00 52.0000 -40.0000 77° East 472 543 32,000  Level ETMS Enhanced Traffic Management System
Thu 03:08:00 52.0635 -39.5383 77° East  Level FlightAware Approximate
Thu 03:09:00 52.0937 -39.3138 78° East  Level FlightAware Approximate
Thu 03:10:00 52.1235 -39.0890 78° East  Level FlightAware Approximate
Thu 03:11:00 52.1528 -38.8639 78° East  Level FlightAware Approximate
Thu 03:12:00 52.1817 -38.6385 78° East  Level FlightAware Approximate
Thu 03:13:00 52.2562 -38.1231 78° East 472 543 32,000  Level FlightAware Transoceanic
Thu 03:14:00 52.2828 -37.9132 78° East 472 543 32,000  Level FlightAware Transoceanic
Thu 03:15:00 52.3091 -37.7032 79° East 472 543 32,000  Level FlightAware Transoceanic
Thu 03:16:00 52.3349 -37.4928 79° East 472 543 32,000  Level FlightAware Transoceanic
Thu 03:17:00 52.3605 -37.2822 79° East 472 543 32,000  Level FlightAware Transoceanic
Thu 03:18:00 52.3856 -37.0714 79° East 472 543 32,000  Level FlightAware Transoceanic
Thu 03:19:00 52.4103 -36.8603 79° East 472 543 32,000  Level FlightAware Transoceanic
Thu 03:20:00 52.4347 -36.6490 79° East 472 543 32,000  Level FlightAware Transoceanic
Thu 03:21:00 52.4587 -36.4375 80° East 472 543 32,000  Level FlightAware Transoceanic
Thu 03:22:00 52.4823 -36.2257 80° East 472 543 32,000  Level FlightAware Transoceanic
Thu 03:23:00 52.5056 -36.0137 80° East 472 543 32,000  Level FlightAware Transoceanic
Thu 03:24:00 52.5284 -35.8015 80° East 472 543 32,000  Level FlightAware Transoceanic
Thu 03:25:00 52.5509 -35.5890 80° East 472 543 32,000  Level FlightAware Transoceanic
Thu 03:26:00 52.5730 -35.3764 80° East 472 543 32,000  Level FlightAware Transoceanic
Thu 03:27:00 52.5947 -35.1635 81° East 472 543 32,000  Level FlightAware Transoceanic
Thu 03:28:00 52.6161 -34.9505 81° East 472 543 32,000  Level FlightAware Transoceanic
Thu 03:29:00 52.6370 -34.7372 81° East 472 543 32,000  Level FlightAware Transoceanic
Thu 03:30:00 52.6576 -34.5237 81° East 472 543 32,000  Level FlightAware Transoceanic
Thu 03:31:00 52.6778 -34.3100 81° East 472 543 32,000  Level FlightAware Transoceanic
Thu 03:32:00 52.6976 -34.0961 81° East 472 543 32,000  Level FlightAware Transoceanic
Thu 03:33:00 52.7170 -33.8821 82° East 472 543 32,000  Level FlightAware Transoceanic
Thu 03:34:00 52.7360 -33.6678 82° East 472 543 32,000  Level FlightAware Transoceanic
Thu 03:35:00 52.7547 -33.4534 82° East 472 543 32,000  Level FlightAware Transoceanic
Thu 03:36:00 52.7729 -33.2387 82° East 472 543 32,000  Level FlightAware Transoceanic
Thu 03:37:00 52.7908 -33.0239 82° East 472 543 32,000  Level FlightAware Transoceanic
Thu 03:38:00 52.8083 -32.8089 82° East 472 543 32,000  Level FlightAware Transoceanic
Thu 03:39:00 52.8254 -32.5938 83° East 472 543 32,000  Level FlightAware Transoceanic
Thu 03:40:00 52.8421 -32.3785 83° East 472 543 32,000  Level FlightAware Transoceanic
Thu 03:41:00 52.8584 -32.1630 83° East 472 543 32,000  Level FlightAware Transoceanic
Thu 03:42:00 52.8743 -31.9474 83° East 472 543 32,000  Level FlightAware Transoceanic
Thu 03:43:00 52.8899 -31.7316 83° East 472 543 32,000  Level FlightAware Transoceanic
Thu 03:44:00 52.9050 -31.5156 83° East 472 543 32,000  Level FlightAware Transoceanic
Thu 03:45:00 52.9198 -31.2995 84° East 472 543 32,000  Level FlightAware Transoceanic
Thu 03:46:00 52.9341 -31.0833 84° East 472 543 32,000  Level FlightAware Transoceanic
Thu 03:47:00 52.9481 -30.8669 84° East 472 543 32,000  Level FlightAware Transoceanic
Thu 03:48:00 52.9617 -30.6504 84° East 472 543 32,000  Level FlightAware Transoceanic
Thu 03:49:00 52.9748 -30.4337 84° East 472 543 32,000  Level FlightAware Transoceanic
Thu 03:50:00 52.9876 -30.2169 84° East 472 543 32,000  Level FlightAware Transoceanic
Thu 03:51:00 53.0010 -29.9829 84° East  Level FlightAware Approximate
Thu 03:52:00 53.0014 -29.9658 86° East  Level FlightAware Approximate
Thu 03:53:00 53.0110 -29.7312 86° East  Level FlightAware Approximate
Thu 03:53:00 53.0000 -30.0000 86° East 515 593 32,000  Level ETMS Enhanced Traffic Management System
Thu 03:54:00 53.0201 -29.4965 86° East  Level FlightAware Approximate
Thu 03:55:00 53.0287 -29.2625 86° East  Level FlightAware Approximate
Thu 03:56:00 53.0368 -29.0284 87° East  Level FlightAware Approximate
Thu 03:57:00 53.0445 -28.7943 87° East  Level FlightAware Approximate
Thu 03:58:00 53.0518 -28.5600 87° East  Level FlightAware Approximate
Thu 03:59:00 53.0585 -28.3257 87° East  Level FlightAware Approximate
Thu 04:00:00 53.0706 -27.8603 88° East 515 593 32,000  Level FlightAware Transoceanic
Thu 04:01:00 53.0761 -27.6221 88° East 515 593 32,000  Level FlightAware Transoceanic
Thu 04:02:00 53.0811 -27.3839 88° East 515 593 32,000  Level FlightAware Transoceanic
Thu 04:03:00 53.0856 -27.1457 88° East 515 593 32,000  Level FlightAware Transoceanic
Thu 04:04:00 53.0897 -26.9074 88° East 515 593 32,000  Level FlightAware Transoceanic
Thu 04:05:00 53.0933 -26.6691 89° East 515 593 32,000  Level FlightAware Transoceanic
Thu 04:06:00 53.0964 -26.4307 89° East 515 593 32,000  Level FlightAware Transoceanic
Thu 04:07:00 53.0990 -26.1923 89° East 515 593 32,000  Level FlightAware Transoceanic
Thu 04:08:00 53.1011 -25.9539 89° East 515 593 32,000  Level FlightAware Transoceanic
Thu 04:09:00 53.1028 -25.7154 89° East 515 593 32,000  Level FlightAware Transoceanic
Thu 04:10:00 53.1040 -25.4770 90° East 515 593 32,000  Level FlightAware Transoceanic
Thu 04:11:00 53.1047 -25.2385 90° East 515 593 32,000  Level FlightAware Transoceanic
Thu 04:12:00 53.1049 -25.0000 90° East 515 593 32,000  Level FlightAware Transoceanic
Thu 04:13:00 53.1047 -24.7615 90° East 515 593 32,000  Level FlightAware Transoceanic
Thu 04:14:00 53.1040 -24.5230 90° East 515 593 32,000  Level FlightAware Transoceanic
Thu 04:15:00 53.1028 -24.2846 91° East 515 593 32,000  Level FlightAware Transoceanic
Thu 04:16:00 53.1011 -24.0461 91° East 515 593 32,000  Level FlightAware Transoceanic
Thu 04:17:00 53.0990 -23.8077 91° East 515 593 32,000  Level FlightAware Transoceanic
Thu 04:18:00 53.0964 -23.5693 91° East 515 593 32,000  Level FlightAware Transoceanic
Thu 04:19:00 53.0933 -23.3309 91° East 515 593 32,000  Level FlightAware Transoceanic
Thu 04:20:00 53.0897 -23.0926 92° East 515 593 32,000  Level FlightAware Transoceanic
Thu 04:21:00 53.0856 -22.8543 92° East 515 593 32,000  Level FlightAware Transoceanic
Thu 04:22:00 53.0811 -22.6161 92° East 515 593 32,000  Level FlightAware Transoceanic
Thu 04:23:00 53.0761 -22.3779 92° East 515 593 32,000  Level FlightAware Transoceanic
Thu 04:24:00 53.0706 -22.1397 92° East 515 593 32,000  Level FlightAware Transoceanic
Thu 04:25:00 53.0647 -21.9017 92° East 515 593 32,000  Level FlightAware Transoceanic
Thu 04:26:00 53.0583 -21.6637 93° East 515 593 32,000  Level FlightAware Transoceanic
Thu 04:27:00 53.0514 -21.4257 93° East 515 593 32,000  Level FlightAware Transoceanic
Thu 04:28:00 53.0440 -21.1879 93° East 515 593 32,000  Level FlightAware Transoceanic
Thu 04:29:00 53.0361 -20.9501 93° East 515 593 32,000  Level FlightAware Transoceanic
Thu 04:30:00 53.0278 -20.7124 93° East 515 593 32,000  Level FlightAware Transoceanic
Thu 04:31:00 53.0190 -20.4749 94° East 515 593 32,000  Level FlightAware Transoceanic
Thu 04:32:00 53.0097 -20.2374 94° East 515 593 32,000 98 Level FlightAware Transoceanic
Thu 04:33:00 53.0001 -20.0036 94° East  Level FlightAware Approximate
Thu 04:34:00 52.9902 -19.7699 94° East  Level FlightAware Approximate
Thu 04:35:00 52.9993 -19.7729 90° East  Level FlightAware Approximate
Thu 04:36:00 52.9980 -19.5387 90° East  Level FlightAware Approximate
Thu 04:37:00 52.9964 -19.3044 91° East  Level FlightAware Approximate
Thu 04:38:00 52.9942 -19.0702 91° East  Level FlightAware Approximate
Thu 04:39:00 52.9916 -18.8360 91° East  Level FlightAware Approximate
Thu 04:40:00 52.9886 -18.6018 91° East  Level FlightAware Approximate
Thu 04:41:00 52.9850 -18.3676 91° East  Level FlightAware Approximate
Thu 04:42:00 52.9811 -18.1335 92° East  Level FlightAware Approximate
Thu 04:43:00 52.9766 -17.8995 92° East  Level FlightAware Approximate
Thu 04:44:00 52.9717 -17.6655 92° East  Level FlightAware Approximate
Thu 04:45:00 52.9664 -17.4315 92° East  Level FlightAware Approximate
Thu 04:46:00 52.9605 -17.1976 92° East  Level FlightAware Approximate
Thu 04:47:00 52.9543 -16.9638 92° East  Level FlightAware Approximate
Thu 04:48:00 52.9475 -16.7300 93° East  Level FlightAware Approximate
Thu 04:49:00 52.9403 -16.4964 93° East  Level FlightAware Approximate
Thu 04:50:00 52.9327 -16.2628 93° East  Level FlightAware Approximate
Thu 04:51:00 52.9246 -16.0292 93° East  Level FlightAware Approximate
Thu 04:52:00 52.9160 -15.7958 93° East  Level FlightAware Approximate
Thu 04:53:00 52.9070 -15.5625 94° East  Level FlightAware Approximate
Thu 04:54:00 52.8975 -15.3293 94° East  Level FlightAware Approximate
Thu 04:55:00 52.8876 -15.0961 94° East  Level FlightAware Approximate
Thu 04:56:00 52.8777 -14.8631 94° East  Level FlightAware Approximate
Thu 04:57:00 52.8677 -14.6300 94° East  Level FlightAware Approximate
Thu 04:58:00 52.8573 -14.3971 94° East  Level FlightAware Approximate
Thu 04:59:00 52.8464 -14.1643 94° East  Level FlightAware Approximate
Thu 05:00:00 52.8351 -13.9317 95° East  Level FlightAware Approximate
Thu 05:01:00 52.8233 -13.6991 95° East  Level FlightAware Approximate
Thu 05:01:32 52.8700 -12.5810 95° East 552 635 35,000  Level FlightAware ADS-B
Thu 05:02:00 52.8110 -13.4667 95° East  Level FlightAware Approximate
Thu 05:02:22 52.8510 -12.3540 98° East 546 628 35,000  Level FlightAware ADS-B
Thu 05:03:02 52.8370 -12.1910 98° East 546 628 35,000  Level FlightAware ADS-B
Thu 05:03:37 52.8250 -12.0490 98° East 547 629 35,000  Level FlightAware ADS-B
Thu 05:04:27 52.8070 -11.8450 98° East 551 634 35,000  Level FlightAware ADS-B
Thu 05:05:02 52.7950 -11.7050 98° East 552 635 35,000  Level FlightAware ADS-B
Thu 05:05:52 52.7750 -11.4880 99° East 551 634 35,000  Level FlightAware ADS-B
Thu 05:06:27 52.7620 -11.3540 99° East 550 633 35,000  Level FlightAware ADS-B
Thu 05:07:42 52.7330 -11.0450 99° East 550 633 35,000  Level FlightAware ADS-B
Thu 05:08:32 52.7130 -10.8360 99° East 549 632 35,000  Level FlightAware ADS-B
Thu 05:09:22 52.6920 -10.6220 99° East 547 629 35,000  Level FlightAware ADS-B
Thu 05:09:52 52.6810 -10.5150 100° East 546 628 35,000  Level FlightAware ADS-B
Thu 05:10:57 52.6540 -10.2490 99° East 543 625 35,000  Level FlightAware ADS-B
Thu 05:11:37 52.6350 -10.0680 100° East 540 621 35,000  Level FlightAware ADS-B
Thu 05:12:22 52.6160 -9.8820 99° East 537 618 35,000  Level FlightAware ADS-B
Thu 05:13:02 52.5980 -9.7140 100° East 540 621 35,000  Level FlightAware ADS-B
Thu 05:13:42 52.5840 -9.5810 100° East 541 623 35,000  Level FlightAware ADS-B
Thu 05:14:27 52.5620 -9.3780 100° East 541 623 35,000  Level FlightAware ADS-B
Thu 05:15:07 52.5450 -9.2270 100° East 542 624 35,000  Level FlightAware ADS-B
Thu 05:15:52 52.5240 -9.0370 100° East 543 625 35,000 -1,385 Level FlightAware ADS-B
Thu 05:16:12 52.5055 -8.9406 100° East 488 562 33,500 -2,368 Descending FlightAware UK
Thu 05:16:30 52.4969 -8.8668 101° East 490 564 33,500 4,500 Level FlightAware UK
Thu 05:16:32 52.5040 -8.8650 101° East 546 628 35,000  Climbing FlightAware ADS-B
Thu 05:16:48 52.4886 -8.7940 101° East 490 564 33,500 -2,647 Descending FlightAware UK
Thu 05:17:06 52.4805 -8.7213 100° East 490 564 33,500 3,103 Level FlightAware UK
Thu 05:17:17 52.4850 -8.6950 100° East 545 627 35,000  Climbing FlightAware ADS-B
Thu 05:17:36 52.4665 -8.5995 100° East 490 564 33,500  Descending FlightAware UK
Thu 05:17:47 52.4690 -8.5640 101° East 545 627 35,000  Climbing FlightAware ADS-B
Thu 05:17:54 52.4580 -8.5264 101° East 488 562 33,500 -4,737 Descending FlightAware UK
Thu 05:18:06 52.4522 -8.4778 101° East 488 562 33,500  Level FlightAware UK
Thu 05:18:24 52.4436 -8.4049 101° East 490 564 33,500 2,903 Level FlightAware UK
Thu 05:18:37 52.4460 -8.3680 101° East 547 629 35,000  Climbing FlightAware ADS-B
Thu 05:18:54 52.4290 -8.2823 101° East 490 564 33,500 -2,571 Descending FlightAware UK
Thu 05:19:12 52.4202 -8.2092 101° East 496 571 33,500 3,214 Level FlightAware UK
Thu 05:19:22 52.4250 -8.1900 101° East 545 627 35,000  Climbing FlightAware ADS-B
Thu 05:19:42 52.4056 -8.0872 101° East 496 571 33,500 -2,368 Descending FlightAware UK
Thu 05:20:00 52.3971 -8.0139 101° East 492 566 33,500 2,571 Level FlightAware UK
Thu 05:20:17 52.3980 -7.9660 101° East 545 627 35,000  Climbing FlightAware ADS-B
Thu 05:20:36 52.3795 -7.8683 101° East 492 566 33,500 -2,432 Descending FlightAware UK
Thu 05:20:54 52.3703 -7.7957 102° East 494 568 33,500 4,286 Level FlightAware UK
Thu 05:20:57 52.3780 -7.8010 102° East 545 627 35,000  Climbing FlightAware ADS-B
Thu 05:21:12 52.3612 -7.7235 102° East 494 568 33,500 -2,727 Descending FlightAware UK
Thu 05:21:30 52.3521 -7.6510 102° East 492 566 33,500 3,000 Level FlightAware UK
Thu 05:21:42 52.3570 -7.6310 102° East 544 626 35,000  Climbing FlightAware ADS-B
Thu 05:22:00 52.3372 -7.5298 102° East 492 566 33,500 -2,500 Descending FlightAware UK
Thu 05:22:18 52.3282 -7.4571 101° East 492 566 33,500 4,091 Level FlightAware UK
Thu 05:22:22 52.3350 -7.4570 101° East 543 625 35,000  Climbing FlightAware ADS-B
Thu 05:22:42 52.3158 -7.3605 101° East 494 568 33,500 -2,368 Descending FlightAware UK
Thu 05:23:00 52.3064 -7.2882 102° East 494 568 33,500 3,600 Level FlightAware UK
Thu 05:23:07 52.3130 -7.2860 102° East 544 626 35,000  Climbing FlightAware ADS-B
Thu 05:23:24 52.2939 -7.1918 102° East 492 566 33,500 -2,571 Descending FlightAware UK
Thu 05:23:42 52.2844 -7.1188 102° East 492 566 33,500 3,913 Level FlightAware UK
Thu 05:23:47 52.2910 -7.1120 102° East 544 626 35,000  Climbing FlightAware ADS-B
Thu 05:24:06 52.2719 -7.0224 102° East 490 564 33,500 -2,432 Descending FlightAware UK
Thu 05:24:24 52.2627 -6.9501 102° East 492 566 33,500 4,286 Level FlightAware UK
Thu 05:24:27 52.2720 -6.9630 102° East 545 627 35,000  Climbing FlightAware ADS-B
Thu 05:24:42 52.2533 -6.8778 102° East 494 568 33,500 -2,727 Descending FlightAware UK
Thu 05:25:00 52.2437 -6.8057 102° East 494 568 33,500 4,500 Level FlightAware UK
Thu 05:25:02 52.2540 -6.8280 102° East 546 628 35,000  Climbing FlightAware ADS-B
Thu 05:25:18 52.2340 -6.7335 102° East 492 566 33,500 -2,647 Descending FlightAware UK
Thu 05:25:36 52.2243 -6.6613 102° East 494 568 33,500  Level FlightAware UK
Thu 05:26:12 52.2049 -6.5173 102° East 494 568 33,500 2,500 Level FlightAware UK
Thu 05:26:12 52.2140 -6.5260 102° East 544 626 35,000  Climbing FlightAware ADS-B
Thu 05:27:00 52.1790 -6.3256 102° East 494 568 33,500  Descending FlightAware UK
Thu 05:27:02 52.1880 -6.3350 102° East 543 625 35,000  Climbing FlightAware ADS-B
Thu 05:27:18 52.1690 -6.2540 102° East 492 566 33,500 -2,647 Descending FlightAware UK
Thu 05:27:36 52.1591 -6.1824 103° East 490 564 33,500 3,103 Level FlightAware UK
Thu 05:27:47 52.1670 -6.1830 103° East 544 626 35,000  Climbing FlightAware ADS-B
Thu 05:28:12 52.1389 -6.0385 103° East 490 564 33,500  Descending FlightAware UK
Thu 05:28:27 52.1430 -6.0060 103° East 544 626 35,000  Climbing FlightAware ADS-B
Thu 05:28:42 52.1222 -5.9190 103° East 494 568 33,500 -2,727 Descending FlightAware UK
Thu 05:29:00 52.1123 -5.8473 103° East 492 566 33,500  Level FlightAware UK
Thu 05:29:18 52.1021 -5.7758 103° East 492 566 33,500  Level FlightAware UK
Thu 05:29:42 52.0884 -5.6804 103° East 492 566 33,500  Level FlightAware UK
Thu 05:30:06 52.0746 -5.5854 103° East 492 566 33,500  Level FlightAware UK
Thu 05:30:24 52.0557 -5.5200 115° Southeast 492 566 33,500  Level FlightAware UK
Thu 05:30:48 52.0277 -5.4390 119° Southeast 492 566 33,500 2,368 Level FlightAware UK
Thu 05:31:02 52.0240 -5.3980 119° Southeast 519 597 35,000  Climbing FlightAware ADS-B
Thu 05:31:24 51.9852 -5.3164 119° Southeast 496 571 33,500  Descending FlightAware UK
Thu 05:31:42 51.9770 -5.2630 119° Southeast 519 597 35,000  Climbing FlightAware ADS-B
Thu 05:32:00 51.9430 -5.1943 119° Southeast 494 568 33,500  Descending FlightAware UK
Thu 05:32:17 51.9340 -5.1390 119° Southeast 518 596 35,000  Climbing FlightAware ADS-B
Thu 05:32:36 51.9004 -5.0730 119° Southeast 492 566 33,500 -2,093 Descending FlightAware UK
Thu 05:33:00 51.8720 -4.9923 120° Southeast 490 564 33,500 2,903 Level FlightAware UK
Thu 05:33:07 51.8760 -4.9700 120° Southeast 517 595 35,000  Climbing FlightAware ADS-B
Thu 05:33:24 51.8435 -4.9118 120° Southeast 490 564 33,500  Descending FlightAware UK
Thu 05:33:47 51.8300 -4.8400 120° Southeast 518 596 35,000 1,324 Climbing FlightAware ADS-B
Thu 05:34:32 51.7780 -4.6950 120° Southeast 519 597 35,000 -1,475 Level FlightAware ADS-B
Thu 05:34:48 51.7429 -4.6312 120° Southeast 494 568 33,500 -2,647 Descending FlightAware UK
Thu 05:35:06 51.7214 -4.5712 120° Southeast 494 568 33,500 4,737 Level FlightAware UK
Thu 05:35:07 51.7340 -4.5690 120° Southeast 522 601 35,000  Climbing FlightAware ADS-B
Thu 05:35:30 51.7045 -4.4794 120° Southeast 492 566 33,500 -2,195 Descending FlightAware UK
Thu 05:35:48 51.6946 -4.4086 103° East 492 566 33,500 3,333 Level FlightAware UK
Thu 05:35:57 51.7020 -4.3810 103° East 541 623 35,000  Climbing FlightAware ADS-B
Thu 05:36:13 51.6817 -4.3135 103° East 494 568 33,500 -2,647 Descending FlightAware UK
Thu 05:36:31 51.6722 -4.2428 102° East 494 568 33,500 3,750 Level FlightAware UK
Thu 05:36:37 51.6810 -4.2190 102° East 542 624 35,000  Climbing FlightAware ADS-B
Thu 05:37:07 51.6574 -4.0991 102° East 494 568 33,500  Descending FlightAware UK
Thu 05:37:17 51.6660 -4.0590 102° East 547 629 35,000  Climbing FlightAware ADS-B
Thu 05:37:55 51.6438 -3.9051 102° East 494 568 33,500  Descending FlightAware UK
Thu 05:37:57 51.6550 -3.8950 102° East 548 631 35,000  Climbing FlightAware ADS-B
Thu 05:38:25 51.6366 -3.7838 102° East 494 568 33,500  Descending FlightAware UK
Thu 05:38:42 51.6450 -3.7150 102° East 548 631 35,000  Climbing FlightAware ADS-B
Thu 05:39:13 51.6253 -3.5890 102° East 494 568 33,500  Descending FlightAware UK
Thu 05:39:22 51.6350 -3.5530 102° East 547 629 35,000  Climbing FlightAware ADS-B
Thu 05:40:01 51.6137 -3.3954 102° East 492 566 33,500  Descending FlightAware UK
Thu 05:40:07 51.6250 -3.3690 102° East 546 628 35,000  Climbing FlightAware ADS-B
Thu 05:40:31 51.6063 -3.2737 102° East 492 566 33,500  Descending FlightAware UK
Thu 05:40:47 51.6150 -3.2060 102° East 545 627 35,000 2,045 Climbing FlightAware ADS-B
Thu 05:41:15 51.6079 -3.0866 95° East 544 626 35,000 -2,045 Level FlightAware ADS-B
Thu 05:41:31 51.5917 -3.0328 95° East 494 568 33,500  Descending FlightAware UK
Thu 05:41:47 51.6000 -2.9579 95° East 544 626 35,000  Climbing FlightAware ADS-B
Thu 05:42:07 51.5824 -2.8880 95° East 492 566 33,500  Descending FlightAware UK
Thu 05:42:18 51.5923 -2.8339 95° East 543 625 35,000  Climbing FlightAware ADS-B
Thu 05:42:37 51.5748 -2.7682 95° East 492 566 33,500  Descending FlightAware UK
Thu 05:42:49 51.5847 -2.7104 95° East 542 624 35,000  Climbing FlightAware ADS-B
Thu 05:43:13 51.5656 -2.6240 95° East 494 568 33,500  Descending FlightAware UK
Thu 05:43:20 51.5768 -2.5877 95° East 541 623 35,000 2,143 Climbing FlightAware ADS-B
Thu 05:43:55 51.5675 -2.4445 96° East 541 623 35,000 -1,698 Level FlightAware ADS-B
Thu 05:44:13 51.5496 -2.3856 96° East 490 564 33,500  Descending FlightAware UK
Thu 05:44:26 51.5593 -2.3209 96° East 541 623 35,000 2,000 Climbing FlightAware ADS-B
Thu 05:44:58 51.5509 -2.1958 96° East 542 624 35,000 -1,667 Level FlightAware ADS-B
Thu 05:45:20 51.5315 -2.1222 96° East 490 564 33,500  Descending FlightAware UK
Thu 05:45:29 51.5423 -2.0711 96° East 542 624 35,000  Climbing FlightAware ADS-B
Thu 05:45:50 51.5230 -2.0028 96° East 490 564 33,500  Descending FlightAware UK
Thu 05:46:01 51.5332 -1.9421 96° East 542 624 35,000  Climbing FlightAware ADS-B
Thu 05:46:26 51.5125 -1.8586 96° East 492 566 33,500  Descending FlightAware UK
Thu 05:46:36 51.5236 -1.8044 96° East 543 625 35,000  Climbing FlightAware ADS-B
Thu 05:46:56 51.5036 -1.7384 96° East 492 566 33,500  Descending FlightAware UK
Thu 05:47:06 51.5147 -1.6830 96° East 543 625 35,000 2,250 Climbing FlightAware ADS-B
Thu 05:47:36 51.5059 -1.5625 97° East 542 624 35,000  Level FlightAware ADS-B
Thu 05:48:08 51.4967 -1.4381 97° East 542 624 35,000 -1,800 Level FlightAware ADS-B
Thu 05:48:26 51.4767 -1.3806 97° East 494 568 33,500  Descending FlightAware UK
Thu 05:48:38 51.4876 -1.3160 97° East 542 624 35,000 2,093 Climbing FlightAware ADS-B
Thu 05:49:09 51.4781 -1.1941 97° East 541 623 35,000 -1,875 Level FlightAware ADS-B
Thu 05:49:26 51.4581 -1.1412 97° East 492 566 33,500  Descending FlightAware UK
Thu 05:49:40 51.4687 -1.0716 97° East 541 623 35,000 1,915 Climbing FlightAware ADS-B
Thu 05:50:13 51.4584 -0.9402 97° East 540 621 35,000 -1,698 Level FlightAware ADS-B
Thu 05:50:33 51.4373 -0.8795 97° East 494 568 33,500  Descending FlightAware UK
Thu 05:50:46 51.4481 -0.8103 97° East 540 621 35,000 2,045 Climbing FlightAware ADS-B
Thu 05:51:17 51.4379 -0.6848 97° East 539 620 35,000 -1,915 Level FlightAware ADS-B
Thu 05:51:33 51.4177 -0.6427 97° East 494 568 33,500  Descending FlightAware UK
Thu 05:51:48 51.4278 -0.5628 97° East 540 621 35,000 2,000 Climbing FlightAware ADS-B
Thu 05:52:18 51.4180 -0.4438 97° East 540 621 35,000 -1,579 Level FlightAware ADS-B
Thu 05:52:45 51.3938 -0.3569 97° East 494 568 33,500  Descending FlightAware UK
Thu 05:52:53 51.4064 -0.3064 97° East 539 620 35,000  Climbing FlightAware ADS-B
Thu 05:53:09 51.3856 -0.2625 97° East 494 568 33,500  Descending FlightAware UK
Thu 05:53:23 51.3960 -0.1861 97° East 539 620 35,000 2,045 Climbing FlightAware ADS-B
Thu 05:53:53 51.3857 -0.0678 98° East 539 620 35,000  Level FlightAware ADS-B
Thu 05:54:26 51.3746 0.0588 98° East 539 620 35,000  Level FlightAware ADS-B
Thu 05:54:56 51.3638 0.1804 98° East 539 620 35,000 -1,837 Level FlightAware ADS-B
Thu 05:55:15 51.3414 0.2337 98° East 494 568 33,500  Descending FlightAware UK
Thu 05:55:34 51.3505 0.3289 98° East 540 621 35,000  Climbing FlightAware ADS-B
Thu 05:55:51 51.3284 0.3753 98° East 494 568 33,500  Descending FlightAware UK
Thu 05:56:11 51.3373 0.4746 98° East 540 621 35,000  Climbing FlightAware ADS-B
Thu 05:56:27 51.3153 0.5177 98° East 494 568 33,500  Descending FlightAware UK
Thu 05:56:42 51.3260 0.5970 98° East 539 620 35,000 1,875 Climbing FlightAware ADS-B
Thu 05:57:15 51.3138 0.7257 99° East 539 620 35,000 -1,406 Level FlightAware ADS-B
Thu 05:57:46 51.2861 0.8244 99° East 494 568 33,500  Descending FlightAware UK
Thu 05:57:55 51.2989 0.8816 99° East 538 619 35,000  Climbing FlightAware ADS-B
Thu 05:58:16 51.2746 0.9419 99° East 494 568 33,500  Descending FlightAware UK
Thu 05:58:26 51.2869 1.0064 99° East 538 619 35,000  Climbing FlightAware ADS-B
Thu 05:58:46 51.2631 1.0593 99° East 494 568 33,500 -2,045 Descending FlightAware UK
Thu 05:59:10 51.2537 1.1540 99° East 494 568 33,500 2,500 Level FlightAware UK
Thu 05:59:22 51.2680 1.2020 99° East 539 620 35,000  Climbing FlightAware ADS-B
Thu 05:59:28 51.2468 1.2246 99° East 494 568 33,500 -3,750 Descending FlightAware UK
Thu 05:59:46 51.2398 1.2959 99° East 494 568 33,500  Level FlightAware UK
Thu 06:00:04 51.2327 1.3665 99° East 494 568 33,500 4,286 Level FlightAware UK
Thu 06:00:07 51.2490 1.3890 99° East 539 620 35,000  Climbing FlightAware ADS-B
Thu 06:00:22 51.2253 1.4377 99° East 494 568 33,500 -2,308 Descending FlightAware UK
Thu 06:00:46 51.2156 1.5318 99° East 494 568 33,500 3,000 Level FlightAware UK
Thu 06:00:52 51.2310 1.5640 99° East 539 620 35,000  Climbing FlightAware ADS-B
Thu 06:01:10 51.2031 1.6249 99° East 494 568 33,500  Descending FlightAware UK
Thu 06:01:32 51.2090 1.7190 99° East 537 618 35,000  Climbing FlightAware ADS-B
Thu 06:01:58 51.1740 1.8088 99° East 494 568 33,500 -2,045 Descending FlightAware UK
Thu 06:02:16 51.1629 1.8776 104° East 496 571 33,500 4,737 Level FlightAware UK
Thu 06:02:17 51.1820 1.8880 104° East 536 617 35,000  Climbing FlightAware ADS-B
Thu 06:02:34 51.1521 1.9464 104° East 496 571 33,500  Descending FlightAware UK
Thu 06:02:57 51.1580 2.0440 104° East 536 617 35,000  Climbing FlightAware ADS-B
Thu 06:03:16 51.1272 2.1071 104° East 496 571 33,500 -2,432 Descending FlightAware UK
Thu 06:03:34 51.1167 2.1759 104° East 496 571 33,500 3,462 Level FlightAware UK
Thu 06:03:42 51.1310 2.2140 104° East 535 616 35,000  Climbing FlightAware ADS-B
Thu 06:04:04 51.0992 2.2913 104° East 496 571 33,500  Descending FlightAware UK
Thu 06:04:27 51.1050 2.3840 104° East 532 612 35,000  Climbing FlightAware ADS-B
Thu 06:04:46 51.0746 2.4512 104° East 496 571 33,500  Descending FlightAware UK
Thu 06:05:07 51.0820 2.5370 104° East 532 612 35,000  Climbing FlightAware ADS-B
Thu 06:05:35 51.0461 2.6341 104° East 494 568 33,500 -1,731 Descending FlightAware UK
Thu 06:05:59 51.0318 2.7248 104° East 494 568 33,500 3,333 Level FlightAware UK
Thu 06:06:02 51.0490 2.7430 104° East 530 610 35,000 2,093 Climbing FlightAware ADS-B
Thu 06:06:42 51.0110 2.8790 114° Southeast 521 600 35,000  Level FlightAware ADS-B
Thu 06:07:27 50.9550 3.0440 118° Southeast 521 600 35,000 -1,385 Level FlightAware ADS-B
Thu 06:07:47 50.9135 3.0920 118° Southeast 494 568 33,500  Descending FlightAware UK
Thu 06:08:07 50.9130 3.1810 118° Southeast 524 603 35,000  Climbing FlightAware ADS-B
Thu 06:08:23 50.8809 3.2209 118° Southeast 494 568 33,500 -2,647 Descending FlightAware UK
Thu 06:08:41 50.8666 3.2864 109° East 494 568 33,500 3,750 Level FlightAware UK
Thu 06:08:47 50.8800 3.3270 109° East 524 603 35,000  Climbing FlightAware ADS-B
Thu 06:09:05 50.8473 3.3733 109° East 494 568 33,500  Descending FlightAware UK
Thu 06:09:32 50.8450 3.4840 109° East 523 602 35,000  Climbing FlightAware ADS-B
Thu 06:09:47 50.8134 3.5252 109° East 492 566 33,500  Descending FlightAware UK
Thu 06:10:17 50.8080 3.6480 109° East 523 602 35,000 1,385 Climbing FlightAware ADS-B
Thu 06:10:52 50.7800 3.7690 110° East 523 602 35,000  Level FlightAware ADS-B
Thu 06:11:37 50.7420 3.9360 110° East 523 602 35,000  Level FlightAware ADS-B
Thu 06:12:17 50.7100 4.0730 110° East 523 602 35,000  Level FlightAware ADS-B
Thu 06:13:02 50.6700 4.2340 111° Southeast 518 596 35,000 -1,500 Level FlightAware ADS-B
Thu 06:13:17 50.6319 4.2732 111° Southeast 492 566 33,500 -2,727 Descending FlightAware UK
Thu 06:13:35 50.6112 4.3335 118° Southeast 492 566 33,500 4,500 Level FlightAware UK
Thu 06:13:37 50.6280 4.3530 118° Southeast 517 595 35,000  Climbing FlightAware ADS-B
Thu 06:13:53 50.5891 4.3911 118° Southeast 494 568 33,500 -2,250 Descending FlightAware UK
Thu 06:14:17 50.5606 4.4692 120° Southeast 494 568 33,500 3,750 Level FlightAware UK
Thu 06:14:17 50.5850 4.4730 120° Southeast 517 595 35,000 1,800 Climbing FlightAware ADS-B
Thu 06:15:07 50.5200 4.6480 120° Southeast 516 594 35,000  Level FlightAware ADS-B
Thu 06:15:42 50.4790 4.7550 121° Southeast 515 593 35,000  Level FlightAware ADS-B
Thu 06:16:22 50.4310 4.8810 121° Southeast 516 594 35,000  Level FlightAware ADS-B
Thu 06:16:57 50.3870 4.9970 121° Southeast 516 594 35,000  Level FlightAware ADS-B
Thu 06:17:47 50.3270 5.1550 121° Southeast 516 594 35,000  Level FlightAware ADS-B
Thu 06:18:32 50.2720 5.3000 121° Southeast 515 593 35,000  Level FlightAware ADS-B
Thu 06:19:12 50.2290 5.4040 123° Southeast 515 593 35,000  Level FlightAware ADS-B
Thu 06:19:57 50.1770 5.5400 121° Southeast 515 593 35,000  Level FlightAware ADS-B
Thu 06:20:37 50.1280 5.6660 121° Southeast 515 593 35,000  Level FlightAware ADS-B
Thu 06:21:22 50.0690 5.8190 121° Southeast 514 592 35,000  Level FlightAware ADS-B
Thu 06:22:02 50.0230 5.9360 121° Southeast 512 589 35,000  Level FlightAware ADS-B
Thu 06:22:42 49.9740 6.0590 122° Southeast 509 586 35,000  Level FlightAware ADS-B
Thu 06:23:27 49.9190 6.1990 121° Southeast 508 585 35,000  Level FlightAware ADS-B
Thu 06:24:07 49.8700 6.3230 121° Southeast 508 585 35,000  Level FlightAware ADS-B
Thu 06:24:47 49.8190 6.4510 122° Southeast 507 583 35,000  Level FlightAware ADS-B
Thu 06:25:32 49.7630 6.5890 122° Southeast 506 582 35,000  Level FlightAware ADS-B
Thu 06:26:12 49.7120 6.7150 122° Southeast 511 588 35,000  Level FlightAware ADS-B
Thu 06:26:57 49.6560 6.8550 122° Southeast 512 589 35,000  Level FlightAware ADS-B
Thu 06:27:37 49.6060 6.9760 122° Southeast 512 589 35,000  Level FlightAware ADS-B
Thu 06:28:22 49.5490 7.1150 122° Southeast 513 590 35,000  Level FlightAware ADS-B
Thu 06:29:02 49.4990 7.2370 122° Southeast 513 590 35,000  Level FlightAware ADS-B
Thu 06:29:42 49.4480 7.3600 122° Southeast 512 589 35,000  Level FlightAware ADS-B
Thu 06:30:27 49.3910 7.4970 123° Southeast 513 590 35,000  Level FlightAware ADS-B
Thu 06:31:07 49.3390 7.6230 122° Southeast 513 590 35,000  Level FlightAware ADS-B
Thu 06:31:52 49.2830 7.7560 123° Southeast 512 589 35,000  Level FlightAware ADS-B
Thu 06:32:32 49.2310 7.8800 123° Southeast 511 588 35,000  Level FlightAware ADS-B
Thu 06:33:12 49.1800 7.9990 123° Southeast 507 583 35,000  Level FlightAware ADS-B
Thu 06:33:57 49.1110 8.1250 130° Southeast 508 585 35,000  Level FlightAware ADS-B
Thu 06:34:37 49.0500 8.2280 132° Southeast 508 585 35,000  Level FlightAware ADS-B
Thu 06:35:17 48.9850 8.3350 133° Southeast 505 581 35,000  Level FlightAware ADS-B
Thu 06:36:02 48.9080 8.4560 134° Southeast 497 572 35,000  Level FlightAware ADS-B
Thu 06:36:42 48.8440 8.5570 134° Southeast 497 572 35,000  Level FlightAware ADS-B
Thu 06:37:27 48.7720 8.6710 134° Southeast 498 573 35,000  Level FlightAware ADS-B
Thu 06:38:07 48.7080 8.7730 134° Southeast 499 574 35,000  Level FlightAware ADS-B
Thu 06:38:47 48.6440 8.8740 134° Southeast 500 575 35,000  Level FlightAware ADS-B
Thu 06:39:32 48.5690 8.9910 134° Southeast 499 574 35,000  Level FlightAware ADS-B
Thu 06:40:12 48.5040 9.0920 134° Southeast 498 573 35,000  Level FlightAware ADS-B
Thu 06:40:57 48.4330 9.2040 134° Southeast 497 572 35,000  Level FlightAware ADS-B
Thu 06:41:37 48.3680 9.3040 134° Southeast 503 579 35,000  Level FlightAware ADS-B
Thu 06:42:22 48.2930 9.4170 135° Southeast 502 578 35,000  Level FlightAware ADS-B
Thu 06:43:02 48.2340 9.5080 134° Southeast 501 577 35,000  Level FlightAware ADS-B
Thu 06:43:42 48.1650 9.6120 135° Southeast 500 575 35,000  Level FlightAware ADS-B
Thu 06:45:22 48.0050 9.8520 135° Southeast 498 573 35,000  Level FlightAware ADS-B
Thu 06:46:02 47.9370 9.9530 135° Southeast 497 572 35,000  Level FlightAware ADS-B
Thu 06:46:42 47.8740 10.0460 135° Southeast 496 571 35,000  Level FlightAware ADS-B
Thu 06:47:27 47.7960 10.1600 136° Southeast 496 571 35,000  Level FlightAware ADS-B
Thu 06:48:07 47.7350 10.2480 136° Southeast 495 570 35,000  Level FlightAware ADS-B
Thu 06:48:52 47.6570 10.3580 136° Southeast 489 563 35,000  Level FlightAware ADS-B
Thu 06:49:32 47.5910 10.4490 137° Southeast 488 562 35,000  Level FlightAware ADS-B
Thu 06:50:12 47.5270 10.5500 133° Southeast 488 562 35,000  Level FlightAware ADS-B
Thu 06:50:57 47.4670 10.6670 127° Southeast 488 562 35,000  Level FlightAware ADS-B
Thu 06:51:37 47.4100 10.7770 127° Southeast 488 562 35,000  Level FlightAware ADS-B
Thu 06:52:22 47.3460 10.8990 128° Southeast 487 560 35,000  Level FlightAware ADS-B
Thu 06:53:02 47.2900 11.0040 128° Southeast 492 566 35,000  Level FlightAware ADS-B
Thu 06:53:47 47.2330 11.1120 128° Southeast 492 566 35,000  Level FlightAware ADS-B
Thu 06:54:27 47.1750 11.2220 128° Southeast 486 559 35,000  Level FlightAware ADS-B
Thu 06:55:12 47.1090 11.3450 128° Southeast 490 564 35,000  Level FlightAware ADS-B
Thu 06:55:52 47.0530 11.4490 128° Southeast 490 564 35,000  Level FlightAware ADS-B
Thu 06:56:32 47.0010 11.5450 128° Southeast 485 558 35,000  Level FlightAware ADS-B
Thu 06:57:17 46.9200 11.6480 139° Southeast 484 557 35,000  Level FlightAware ADS-B
Thu 06:57:57 46.8490 11.7360 140° Southeast 490 564 35,000  Level FlightAware ADS-B
Thu 06:58:37 46.7810 11.8220 139° Southeast 490 564 35,000  Level FlightAware ADS-B
Thu 06:59:22 46.7020 11.9150 141° Southeast 488 562 35,000  Level FlightAware ADS-B
Thu 07:00:02 46.6310 11.9960 142° Southeast 488 562 35,000  Level FlightAware ADS-B
Thu 07:00:47 46.5510 12.0890 141° Southeast 481 554 35,000  Level FlightAware ADS-B
Thu 07:01:27 46.4820 12.1700 141° Southeast 481 554 35,000  Level FlightAware ADS-B
Thu 07:02:07 46.4100 12.2530 142° Southeast 481 554 35,000  Level FlightAware ADS-B
Thu 07:02:52 46.3320 12.3430 141° Southeast 480 552 35,000  Level FlightAware ADS-B
Thu 07:03:32 46.2620 12.4240 141° Southeast 480 552 35,000  Level FlightAware ADS-B
Thu 07:04:17 46.1810 12.5170 142° Southeast 488 562 35,000  Level FlightAware ADS-B
Thu 07:04:57 46.1150 12.5940 141° Southeast 482 555 35,000  Level FlightAware ADS-B
Thu 07:05:37 46.0500 12.6950 133° Southeast 487 560 35,000  Level FlightAware ADS-B
Thu 07:06:22 45.9870 12.8090 128° Southeast 488 562 35,000  Level FlightAware ADS-B
Thu 07:07:02 45.9320 12.9090 128° Southeast 488 562 35,000  Level FlightAware ADS-B
Thu 07:07:42 45.8750 13.0100 129° Southeast 489 563 35,000  Level FlightAware ADS-B
Thu 07:08:27 45.8120 13.1230 129° Southeast 490 564 35,000  Level FlightAware ADS-B
Thu 07:09:07 45.7530 13.2260 129° Southeast 489 563 35,000  Level FlightAware ADS-B
Thu 07:09:47 45.7040 13.3140 129° Southeast 490 564 35,000  Level FlightAware ADS-B
Thu 07:10:32 45.6300 13.4420 130° Southeast 484 557 35,000  Level FlightAware ADS-B
Thu 07:11:12 45.5730 13.5400 130° Southeast 483 556 35,000  Level FlightAware ADS-B
Thu 07:11:57 45.5080 13.6530 129° Southeast 482 555 35,000  Level FlightAware ADS-B
Thu 07:12:37 45.4510 13.7510 130° Southeast 481 554 35,000  Level FlightAware ADS-B
Thu 07:13:17 45.3930 13.8500 130° Southeast 481 554 35,000  Level FlightAware ADS-B
Thu 07:14:02 45.3280 13.9600 130° Southeast 480 552 35,000  Level FlightAware ADS-B
Thu 07:14:42 45.2710 14.0560 130° Southeast 479 551 35,000  Level FlightAware ADS-B
Thu 07:15:27 45.2060 14.1680 129° Southeast 479 551 35,000  Level FlightAware ADS-B
Thu 07:16:07 45.1490 14.2620 131° Southeast 482 555 35,000  Level FlightAware ADS-B
Thu 07:16:47 45.0900 14.3620 130° Southeast 476 548 35,000  Level FlightAware ADS-B
Thu 07:17:32 45.0270 14.4680 130° Southeast 475 547 35,000  Level FlightAware ADS-B
Thu 07:18:07 44.9780 14.5490 131° Southeast 475 547 35,000 212 Level FlightAware ADS-B
Thu 07:18:57 44.9100 14.6610 131° Southeast 476 548 35,300 800 Climbing FlightAware ADS-B
Thu 07:19:37 44.8530 14.7550 131° Southeast 475 547 36,200 1,200 Climbing FlightAware ADS-B
Thu 07:20:17 44.7970 14.8480 130° Southeast 474 545 36,900 565 Climbing FlightAware ADS-B
Thu 07:21:02 44.7280 14.9610 131° Southeast 475 547 37,000 71 Climbing FlightAware ADS-B
Thu 07:21:42 44.6700 15.0550 131° Southeast 476 548 37,000  Level FlightAware ADS-B
Thu 07:22:27 44.6050 15.1610 131° Southeast 475 547 37,000  Level FlightAware ADS-B
Thu 07:23:07 44.5460 15.2580 130° Southeast 476 548 37,000  Level FlightAware ADS-B
Thu 07:23:47 44.4880 15.3510 131° Southeast 476 548 37,000  Level FlightAware ADS-B
Thu 07:24:32 44.4280 15.4470 131° Southeast 476 548 37,000  Level FlightAware ADS-B
Thu 07:25:12 44.3640 15.5490 131° Southeast 475 547 37,000  Level FlightAware ADS-B
Thu 07:25:57 44.2980 15.6540 131° Southeast 474 545 37,000  Level FlightAware ADS-B
Thu 07:26:37 44.2390 15.7490 131° Southeast 473 544 37,000  Level FlightAware ADS-B
Thu 07:27:17 44.1820 15.8390 131° Southeast 472 543 37,000  Level FlightAware ADS-B
Thu 07:28:02 44.1120 15.9490 132° Southeast 478 550 37,000  Level FlightAware ADS-B
Thu 07:28:42 44.0530 16.0430 131° Southeast 477 549 37,000  Level FlightAware ADS-B
Thu 07:29:27 43.9870 16.1460 132° Southeast 477 549 37,000  Level FlightAware ADS-B
Thu 07:30:07 43.9270 16.2380 132° Southeast 476 548 37,000  Level FlightAware ADS-B
Thu 07:30:52 43.8600 16.3430 131° Southeast 478 550 37,000  Level FlightAware ADS-B
Thu 07:31:32 43.8020 16.4340 131° Southeast 477 549 37,000  Level FlightAware ADS-B
Thu 07:32:12 43.7410 16.5270 132° Southeast 478 550 37,000  Level FlightAware ADS-B
Thu 07:32:57 43.6780 16.6240 132° Southeast 477 549 37,000  Level FlightAware ADS-B
Thu 07:33:37 43.6180 16.7160 132° Southeast 477 549 37,000  Level FlightAware ADS-B
Thu 07:34:17 43.5580 16.8080 132° Southeast 477 549 37,000  Level FlightAware ADS-B
Thu 07:34:57 43.5010 16.8930 133° Southeast 478 550 37,000  Level FlightAware ADS-B
Thu 07:35:42 43.4310 17.0000 132° Southeast 479 551 37,000  Level FlightAware ADS-B
Thu 07:36:27 43.3650 17.1000 132° Southeast 480 552 37,000  Level FlightAware ADS-B
Thu 07:37:07 43.3050 17.1900 132° Southeast 482 555 37,000  Level FlightAware ADS-B
Thu 07:37:52 43.2360 17.2940 132° Southeast 481 554 37,000  Level FlightAware ADS-B
Thu 07:38:32 43.1770 17.3830 132° Southeast 481 554 37,000  Level FlightAware ADS-B
Thu 07:39:12 43.1150 17.4740 133° Southeast 481 554 37,000  Level FlightAware ADS-B
Thu 07:39:57 43.0480 17.5740 132° Southeast 481 554 37,000  Level FlightAware ADS-B
Thu 07:40:37 42.9900 17.6590 133° Southeast 481 554 37,000  Level FlightAware ADS-B
Thu 07:41:22 42.9180 17.7650 133° Southeast 481 554 37,000  Level FlightAware ADS-B
Thu 07:42:02 42.8580 17.8540 133° Southeast 479 551 37,000  Level FlightAware ADS-B
Thu 07:42:42 42.8000 17.9390 133° Southeast 479 551 37,000  Level FlightAware ADS-B
Thu 07:43:27 42.7300 18.0410 133° Southeast 479 551 37,000  Level FlightAware ADS-B
Thu 07:44:07 42.6720 18.1270 133° Southeast 479 551 37,000  Level FlightAware ADS-B
Thu 07:44:52 42.6040 18.2240 134° Southeast 480 552 37,000  Level FlightAware ADS-B
Thu 07:45:32 42.5430 18.3130 133° Southeast 480 552 37,000  Level FlightAware ADS-B
Thu 07:46:17 42.4690 18.4100 136° Southeast 481 554 37,000  Level FlightAware ADS-B
Thu 07:46:57 42.4050 18.4950 136° Southeast 481 554 37,000  Level FlightAware ADS-B
Thu 07:47:37 42.3410 18.5780 136° Southeast 480 552 37,000  Level FlightAware ADS-B
Thu 07:48:17 42.2770 18.6620 136° Southeast 480 552 37,000  Level FlightAware ADS-B
Thu 07:49:02 42.2060 18.7560 136° Southeast 480 552 37,000  Level FlightAware ADS-B
Thu 07:49:42 42.1420 18.8390 136° Southeast 481 554 37,000  Level FlightAware ADS-B
Thu 07:50:17 42.0920 18.9060 135° Southeast 482 555 37,000  Level FlightAware ADS-B
Thu 07:51:07 42.0050 19.0180 136° Southeast 485 558 37,000  Level FlightAware ADS-B
Thu 07:51:47 41.9420 19.0990 136° Southeast 485 558 37,000  Level FlightAware ADS-B
Thu 07:52:32 41.8700 19.1930 136° Southeast 486 559 37,000  Level FlightAware ADS-B
Thu 07:53:12 41.8050 19.2760 136° Southeast 488 562 37,000  Level FlightAware ADS-B
Thu 07:53:57 41.7290 19.3740 136° Southeast 489 563 37,000  Level FlightAware ADS-B
Thu 07:54:37 41.6630 19.4580 136° Southeast 490 564 37,000  Level FlightAware ADS-B
Thu 07:55:17 41.5980 19.5410 136° Southeast 493 567 37,000  Level FlightAware ADS-B
Thu 07:56:17 41.5020 19.6620 137° Southeast 495 570 37,000  Level FlightAware ADS-B
Thu 07:57:02 41.4240 19.7620 136° Southeast 499 574 37,000  Level FlightAware ADS-B
Thu 07:57:42 41.3580 19.8460 136° Southeast 502 578 37,000  Level FlightAware ADS-B
Thu 07:58:22 41.2890 19.9310 137° Southeast 505 581 37,000  Level FlightAware ADS-B
Thu 07:59:07 41.2100 20.0300 137° Southeast 507 583 37,000  Level FlightAware ADS-B
Thu 07:59:47 41.1540 20.1010 136° Southeast 510 587 37,000  Level FlightAware ADS-B
Thu 08:00:32 41.0700 20.2060 137° Southeast 513 590 37,000  Level FlightAware ADS-B
Thu 08:01:12 41.0030 20.2890 137° Southeast 508 585 37,000  Level FlightAware ADS-B
Thu 08:01:52 40.9330 20.3750 137° Southeast 509 586 37,000  Level FlightAware ADS-B
Thu 08:02:32 40.8610 20.4650 137° Southeast 512 589 37,000  Level FlightAware ADS-B
Thu 08:03:17 40.7830 20.5610 137° Southeast 513 590 37,000  Level FlightAware ADS-B
Thu 08:03:57 40.7120 20.6480 137° Southeast 514 592 37,000  Level FlightAware ADS-B
Thu 08:04:42 40.6330 20.7450 137° Southeast 515 593 37,000  Level FlightAware ADS-B
Thu 08:05:22 40.5620 20.8310 137° Southeast 516 594 37,000  Level FlightAware ADS-B
Thu 08:06:02 40.4920 20.9170 137° Southeast 522 601 37,000  Level FlightAware ADS-B
Thu 08:06:47 40.4110 21.0160 137° Southeast 523 602 37,000  Level FlightAware ADS-B
Thu 08:07:27 40.3500 21.1140 129° Southeast 517 595 37,000  Level FlightAware ADS-B
Thu 08:08:12 40.2890 21.2270 125° Southeast 522 601 37,000  Level FlightAware ADS-B
Thu 08:08:52 40.2300 21.3290 127° Southeast 517 595 37,000  Level FlightAware ADS-B
Thu 08:09:32 40.1710 21.4290 128° Southeast 521 600 37,000  Level FlightAware ADS-B
Thu 08:10:17 40.1030 21.5430 128° Southeast 521 600 37,000  Level FlightAware ADS-B
Thu 08:10:57 40.0430 21.6420 128° Southeast 522 601 37,000  Level FlightAware ADS-B
Thu 08:11:42 39.9780 21.7540 127° Southeast 517 595 37,000  Level FlightAware ADS-B
Thu 08:12:22 39.9220 21.8520 127° Southeast 517 595 37,000  Level FlightAware ADS-B
Thu 08:13:02 39.8640 21.9550 126° Southeast 517 595 37,000  Level FlightAware ADS-B
Thu 08:13:47 39.7970 22.0700 127° Southeast 518 596 37,000  Level FlightAware ADS-B
Thu 08:14:27 39.7390 22.1690 127° Southeast 517 595 37,000  Level FlightAware ADS-B
Thu 08:15:07 39.6810 22.2690 127° Southeast 517 595 37,000  Level FlightAware ADS-B
Thu 08:15:52 39.6150 22.3820 127° Southeast 517 595 37,000  Level FlightAware ADS-B
Thu 08:16:32 39.5580 22.4790 127° Southeast 517 595 37,000  Level FlightAware ADS-B
Thu 08:17:17 39.4920 22.5920 127° Southeast 519 597 37,000  Level FlightAware ADS-B
Thu 08:17:57 39.4320 22.6940 127° Southeast 519 597 37,000  Level FlightAware ADS-B
Thu 08:18:37 39.3750 22.7900 128° Southeast 519 597 37,000  Level FlightAware ADS-B
Thu 08:19:22 39.3060 22.9050 128° Southeast 524 603 37,000  Level FlightAware ADS-B
Thu 08:20:02 39.2490 23.0030 127° Southeast 518 596 37,000  Level FlightAware ADS-B
Thu 08:20:42 39.1890 23.1020 128° Southeast 523 602 37,000  Level FlightAware ADS-B
Thu 08:21:27 39.1220 23.2140 128° Southeast 522 601 37,000  Level FlightAware ADS-B
Thu 08:22:07 39.0660 23.3080 127° Southeast 521 600 37,000  Level FlightAware ADS-B
Thu 08:22:52 38.9970 23.4230 128° Southeast 522 601 37,000  Level FlightAware ADS-B
Thu 08:23:27 38.9500 23.5010 128° Southeast 522 601 37,000  Level FlightAware ADS-B
Thu 08:24:07 38.9010 23.5850 127° Southeast 522 601 37,000  Level FlightAware ADS-B
Thu 08:24:57 38.8390 23.6900 127° Southeast 522 601 37,000  Level FlightAware ADS-B
Thu 08:25:37 38.7900 23.7740 127° Southeast 522 601 37,000  Level FlightAware ADS-B
Thu 08:26:17 38.7400 23.8580 127° Southeast 522 601 37,000  Level FlightAware ADS-B
Thu 08:26:57 38.6910 23.9420 127° Southeast 522 601 37,000  Level FlightAware ADS-B
Thu 08:27:47 38.6290 24.0470 127° Southeast 522 601 37,000  Level FlightAware ADS-B
Thu 08:28:27 38.5800 24.1310 127° Southeast 522 601 37,000  Level FlightAware ADS-B
Thu 08:29:07 38.5300 24.2150 127° Southeast 522 601 37,000  Level FlightAware ADS-B
Thu 08:29:47 38.4810 24.2990 127° Southeast 522 601 37,000  Level FlightAware ADS-B
Thu 08:30:37 38.4190 24.4040 127° Southeast 522 601 37,000  Level FlightAware ADS-B
Thu 08:31:07 38.3820 24.4660 127° Southeast 522 601 37,000  Level FlightAware ADS-B
Thu 08:31:57 38.3200 24.5710 127° Southeast 522 601 37,000  Level FlightAware ADS-B
Thu 08:32:37 38.2710 24.6540 127° Southeast 522 601 37,000  Level FlightAware ADS-B
Thu 08:35:00 38.0842 25.0076 124° Southeast  Level Estimated
Thu 08:36:00 38.0055 25.1554 124° Southeast  Level Estimated
Thu 08:37:00 37.9266 25.3029 124° Southeast  Level Estimated
Thu 08:38:00 37.8475 25.4501 124° Southeast  Level Estimated
Thu 08:38:57 37.5430 25.7480 124° Southeast 516 594 37,000  Level FlightAware ADS-B
Thu 08:39:00 37.7683 25.5970 124° Southeast  Level Estimated
Thu 08:39:42 37.4770 25.8500 129° Southeast 513 590 37,000  Level FlightAware ADS-B
Thu 08:40:22 37.4200 25.9380 129° Southeast 512 589 37,000  Level FlightAware ADS-B
Thu 08:41:02 37.3580 26.0340 129° Southeast 511 588 37,000  Level FlightAware ADS-B
Thu 08:41:42 37.2980 26.1250 130° Southeast 510 587 37,000  Level FlightAware ADS-B
Thu 08:42:27 37.2280 26.2320 129° Southeast 508 585 37,000  Level FlightAware ADS-B
Thu 08:43:07 37.1710 26.3180 130° Southeast 508 585 37,000  Level FlightAware ADS-B
Thu 08:43:47 37.1110 26.4090 130° Southeast 508 585 37,000  Level FlightAware ADS-B
Thu 08:44:37 37.0340 26.5260 129° Southeast 509 586 37,000  Level FlightAware ADS-B
Thu 08:45:17 36.9740 26.6160 130° Southeast 508 585 37,000  Level FlightAware ADS-B
Thu 08:46:02 36.9060 26.7180 130° Southeast 509 586 37,000  Level FlightAware ADS-B
Thu 08:46:42 36.8470 26.8050 130° Southeast 509 586 37,000  Level FlightAware ADS-B
Thu 08:47:32 36.7760 26.9140 129° Southeast 509 586 37,000  Level FlightAware ADS-B
Thu 08:48:22 36.6970 27.0290 131° Southeast 510 587 37,000  Level FlightAware ADS-B
Thu 08:48:52 36.6500 27.0990 130° Southeast 510 587 37,000  Level FlightAware ADS-B
Thu 08:49:42 36.5730 27.2130 130° Southeast 510 587 37,000  Level FlightAware ADS-B
Thu 08:50:17 36.5210 27.2890 130° Southeast 509 586 37,000  Level FlightAware ADS-B
Thu 08:51:07 36.4420 27.4050 130° Southeast 509 586 37,000  Level FlightAware ADS-B
Thu 08:51:42 36.3920 27.4780 130° Southeast 510 587 37,000  Level FlightAware ADS-B
Thu 08:52:22 36.3340 27.5620 131° Southeast 511 588 37,000  Level FlightAware ADS-B
Thu 08:53:07 36.2710 27.6560 130° Southeast 511 588 37,000  Level FlightAware ADS-B
Thu 08:53:57 36.2060 27.7510 130° Southeast 511 588 37,000  Level FlightAware ADS-B
Thu 08:54:37 36.1550 27.8280 129° Southeast 511 588 37,000  Level FlightAware ADS-B
Thu 08:55:17 36.1030 27.9040 130° Southeast 511 588 37,000  Level FlightAware ADS-B
Thu 08:56:02 35.9870 28.0650 132° Southeast 520 598 37,000  Level FlightAware ADS-B
Thu 08:56:42 35.9250 28.1530 131° Southeast 522 601 37,000  Level FlightAware ADS-B
Thu 08:57:27 35.8510 28.2580 131° Southeast 524 603 37,000  Level FlightAware ADS-B
Thu 08:58:07 35.7880 28.3480 131° Southeast 525 604 37,000  Level FlightAware ADS-B
Thu 08:58:52 35.7190 28.4470 131° Southeast 525 604 37,000  Level FlightAware ADS-B
Thu 08:59:32 35.6540 28.5380 131° Southeast 524 603 37,000  Level FlightAware ADS-B
Thu 09:00:12 35.5910 28.6260 131° Southeast 524 603 37,000  Level FlightAware ADS-B
Thu 09:00:57 35.5160 28.7320 131° Southeast 523 602 37,000  Level FlightAware ADS-B
Thu 09:01:37 35.4530 28.8200 131° Southeast 522 601 37,000  Level FlightAware ADS-B
Thu 09:02:32 35.3710 28.9340 131° Southeast 515 593 37,000  Level FlightAware ADS-B
Thu 09:03:12 35.3150 29.0120 131° Southeast 515 593 37,000  Level FlightAware ADS-B
Thu 09:03:57 35.2380 29.1200 131° Southeast 515 593 37,000  Level FlightAware ADS-B
Thu 09:04:32 35.1760 29.2050 132° Southeast 515 593 37,000  Level FlightAware ADS-B
Thu 09:05:22 35.1110 29.2990 130° Southeast 514 592 37,000  Level FlightAware ADS-B
Thu 09:06:17 35.0160 29.4290 132° Southeast 515 593 37,000  Level FlightAware ADS-B
Thu 09:06:57 34.9640 29.5050 130° Southeast 515 593 37,000  Level FlightAware ADS-B
Thu 09:07:37 34.9120 29.5810 130° Southeast 515 593 37,000  Level FlightAware ADS-B
Thu 09:08:22 34.8130 29.7030 135° Southeast 518 596 37,000  Level FlightAware ADS-B
Thu 09:09:07 34.7410 29.8000 132° Southeast 520 598 37,000  Level FlightAware ADS-B
Thu 09:09:42 34.6830 29.8790 132° Southeast 526 605 37,000  Level FlightAware ADS-B
Thu 09:10:42 34.5850 30.0130 132° Southeast 526 605 37,000  Level FlightAware ADS-B
Thu 09:11:27 34.5290 30.1290 120° Southeast 527 606 37,000  Level FlightAware ADS-B
Thu 09:12:02 34.4910 30.2110 119° Southeast 528 608 37,000  Level FlightAware ADS-B
Thu 09:12:52 34.4240 30.3510 120° Southeast 524 603 37,000  Level FlightAware ADS-B
Thu 09:13:32 34.3730 30.4560 120° Southeast 525 604 37,000  Level FlightAware ADS-B
Thu 09:14:12 34.3230 30.5590 120° Southeast 528 608 37,000  Level FlightAware ADS-B
Thu 09:15:22 34.2380 30.7320 121° Southeast 527 606 37,000  Level FlightAware ADS-B
Thu 09:16:02 34.1880 30.8350 120° Southeast 528 608 37,000  Level FlightAware ADS-B
Thu 09:16:47 34.1320 30.9490 121° Southeast 533 613 37,000  Level FlightAware ADS-B
Thu 09:17:27 34.0840 31.0460 121° Southeast 534 615 37,000  Level FlightAware ADS-B
Thu 09:18:12 34.0250 31.1660 121° Southeast 533 613 37,000  Level FlightAware ADS-B
Thu 09:18:52 33.9730 31.2730 120° Southeast 534 615 37,000  Level FlightAware ADS-B
Thu 09:19:32 33.9220 31.3750 121° Southeast 532 612 37,000  Level FlightAware ADS-B
Thu 09:20:17 33.8660 31.4880 121° Southeast 533 613 37,000  Level FlightAware ADS-B
Thu 09:20:57 33.8150 31.5900 121° Southeast 534 615 37,000  Level FlightAware ADS-B
Thu 09:21:37 33.7650 31.6900 121° Southeast 535 616 37,000  Level FlightAware ADS-B
Thu 09:22:22 33.7070 31.8060 121° Southeast 536 617 37,000  Level FlightAware ADS-B
Thu 09:23:02 33.6550 31.9090 121° Southeast 536 617 37,000  Level FlightAware ADS-B
Thu 09:23:42 33.6030 32.0130 121° Southeast 537 618 37,000  Level FlightAware ADS-B
Thu 09:24:22 33.5530 32.1120 121° Southeast 538 619 37,000  Level FlightAware ADS-B
Thu 09:25:07 33.4920 32.2330 121° Southeast 536 617 37,000  Level FlightAware ADS-B
Thu 09:26:47 33.3670 32.4790 121° Southeast 535 616 37,000 -386 Level FlightAware ADS-B
Thu 09:27:27 33.3140 32.5820 122° Southeast 536 617 36,100 -1,425 Descending FlightAware ADS-B
Thu 09:28:07 33.2650 32.6780 121° Southeast 543 625 35,100 -1,553 Descending FlightAware ADS-B
Thu 09:28:52 33.2030 32.7980 122° Southeast 538 619 33,900 -2,533 Descending FlightAware ADS-B
Thu 09:29:37 33.1450 32.9120 121° Southeast 541 623 31,300 -3,106 Descending FlightAware ADS-B
Thu 09:30:17 33.0920 33.0130 122° Southeast 548 631 29,500 -2,720 Descending FlightAware ADS-B
Thu 09:30:52 33.0410 33.1120 122° Southeast 535 616 27,900 -2,612 Descending FlightAware ADS-B
Thu 09:31:42 32.9770 33.2350 122° Southeast 509 586 25,800 -2,467 Descending FlightAware ADS-B
Thu 09:32:22 32.9280 33.3290 122° Southeast 502 578 24,200 -2,259 Descending FlightAware ADS-B
Thu 09:33:07 32.8750 33.4300 122° Southeast 490 564 22,600 -2,259 Descending FlightAware ADS-B
Thu 09:33:47 32.8250 33.5250 122° Southeast 479 551 21,000 -2,188 Descending FlightAware ADS-B
Thu 09:34:32 32.7750 33.6210 122° Southeast 470 541 19,500 -2,118 Descending FlightAware ADS-B
Thu 09:35:12 32.7290 33.7090 122° Southeast 448 516 18,000 -2,175 Descending FlightAware ADS-B
Thu 09:35:52 32.6860 33.7900 122° Southeast 432 497 16,600 -2,047 Descending FlightAware ADS-B
Thu 09:36:37 32.6390 33.8800 122° Southeast 386 444 15,100 -1,765 Descending FlightAware ADS-B
Thu 09:37:17 32.6040 33.9460 122° Southeast 348 400 14,100 -1,500 Descending FlightAware ADS-B
Thu 09:37:57 32.5720 34.0060 122° Southeast 318 366 13,100 -1,412 Descending FlightAware ADS-B
Thu 09:38:42 32.5390 34.0680 122° Southeast 307 353 12,100 -1,412 Descending FlightAware ADS-B
Thu 09:39:22 32.5070 34.1290 122° Southeast 298 343 11,100 -1,440 Descending FlightAware ADS-B
Thu 09:39:57 32.4760 34.1730 130° Southeast 296 341 10,300 -1,286 Descending FlightAware ADS-B
Thu 09:40:32 32.4430 34.2130 134° Southeast 291 335 9,600 -1,200 Descending FlightAware ADS-B
Thu 09:41:02 32.4140 34.2460 136° Southeast 286 329 9,000 -1,050 Descending FlightAware ADS-B
Thu 09:41:12 32.4050 34.2560 137° Southeast 284 327 8,900 -514 Descending FlightAware ADS-B
Thu 09:41:37 32.3830 34.2830 134° Southeast 278 320 8,700 -400 Descending FlightAware ADS-B
Thu 09:41:57 32.3660 34.3030 135° Southeast 273 314 8,600 -133 Descending FlightAware ADS-B
Thu 09:42:22 32.3440 34.3300 134° Southeast 273 314 8,600  Level FlightAware ADS-B
Thu 09:42:52 32.3220 34.3570 134° Southeast 273 314 8,600  Level FlightAware ADS-B
Thu 09:43:02 32.3140 34.3660 136° Southeast 273 314 8,600  Level FlightAware ADS-B
Thu 09:43:32 32.2920 34.3940 133° Southeast 273 314 8,600  Level FlightAware ADS-B
Thu 09:46:00 32.0778 34.7139 115° Southeast  Level FlightAware Approximate
Thu 09:47:00 32.0064 34.8560 125° Southeast  Level FlightAware Approximate
Thu 09:48:00 32.0000 34.8667 125° Southeast  Level FlightAware Approximate
Thu 09:49:00 32.0095 34.8769 125° Southeast  Level Estimated
Thu 09:50:00 32.0095 34.8769 125° Southeast  Level Estimated
Thu 09:51:00 32.0095 34.8769 125° Southeast  Level Estimated
Thu 09:52:00 32.0095 34.8769 125° Southeast  Level Estimated
Thu 09:53:00 32.0095 34.8769 125° Southeast  Level Estimated
Thu 09:54:00 32.0095 34.8769 125° Southeast  Level Estimated
Thu 09:55:00 32.0095 34.8769 125° Southeast  Level Estimated

Login

Don't have an account? Register now (free) for customized features, flight alerts, and more!